Time;durP1;ratioP1;P1;durP2;ratioP2;P2;SDS_P1;SDS_P2;PMS_P1;PMS_P2;Temp;Humidity;BMP_temperature;BMP_pressure;BME280_temperature;BME280_humidity;BME280_pressure;Samples;Min_cycle;Max_cycle;Signal;HPM_P1;HPM_P2
2021/11/26 00:00:20;;;;;;;100.80;32.70;;;;;;;-1.80;100.00;94857.34;1022202;29;20043;-70
2021/11/26 00:00:51;;;;;;;89.40;29.65;;;;;;;-1.81;100.00;94858.34;1022706;28;20020;-70
2021/11/26 00:01:21;;;;;;;89.72;31.05;;;;;;;-1.86;100.00;94847.88;1021906;29;20053;-71
2021/11/26 00:01:52;;;;;;;78.15;29.90;;;;;;;-1.93;100.00;94844.56;1019585;28;20630;-71
2021/11/26 00:02:26;;;;;;;80.15;27.88;;;;;;;-1.86;100.00;94855.59;1030615;28;20022;-70
2021/11/26 00:02:57;;;;;;;92.06;31.22;;;;;;;-1.88;100.00;94852.41;1018539;29;20457;-71
2021/11/26 00:03:27;;;;;;;80.38;29.83;;;;;;;-1.95;100.00;94831.88;1026215;28;20018;-70
2021/11/26 00:04:00;;;;;;;88.88;29.95;;;;;;;-1.86;100.00;94845.28;1018197;29;20026;-70
2021/11/26 00:04:30;;;;;;;85.30;31.28;;;;;;;-1.81;100.00;94849.81;1021639;28;20961;-70
2021/11/26 00:05:02;;;;;;;83.72;31.08;;;;;;;-1.85;100.00;94840.94;1022184;29;20039;-71
2021/11/26 00:05:33;;;;;;;90.18;33.04;;;;;;;-1.79;100.00;94846.03;1022548;28;20054;-71
2021/11/26 00:06:04;;;;;;;82.05;31.25;;;;;;;-1.79;100.00;94840.91;1026835;28;20046;-71
2021/11/26 00:06:34;;;;;;;85.82;30.38;;;;;;;-1.96;100.00;94817.47;1022560;29;20584;-71
2021/11/26 00:07:05;;;;;;;93.68;31.08;;;;;;;-1.76;100.00;94852.56;1022407;28;20043;-71
2021/11/26 00:07:35;;;;;;;83.35;29.58;;;;;;;-1.83;100.00;94834.59;1026479;28;20019;-71
2021/11/26 00:08:06;;;;;;;76.93;29.40;;;;;;;-1.78;100.00;94845.03;1022451;28;20038;-70
2021/11/26 00:08:36;;;;;;;80.07;29.67;;;;;;;-1.83;100.00;94833.81;1025673;28;20031;-71
2021/11/26 00:09:07;;;;;;;86.97;30.67;;;;;;;-1.77;100.00;94841.50;1022823;29;20054;-70
2021/11/26 00:09:37;;;;;;;92.15;30.13;;;;;;;-1.84;100.00;94833.03;1025717;28;20097;-68
2021/11/26 00:10:08;;;;;;;80.05;29.10;;;;;;;-1.82;100.00;94833.59;1025460;28;20058;-71
2021/11/26 00:10:39;;;;;;;81.04;29.90;;;;;;;-1.77;100.00;94840.72;1018690;29;20016;-70
2021/11/26 00:11:09;;;;;;;90.80;29.90;;;;;;;-1.77;100.00;94838.91;1018486;29;20027;-71
2021/11/26 00:11:40;;;;;;;89.18;29.25;;;;;;;-1.83;100.00;94826.88;1018611;29;20454;-71
2021/11/26 00:12:10;;;;;;;90.82;30.45;;;;;;;-1.73;100.00;94839.28;1018544;28;20127;-71
2021/11/26 00:12:50;;;;;;;90.82;31.15;;;;;;;-1.81;100.00;94835.19;1022533;28;20318;-71
2021/11/26 00:13:27;;;;;;;102.26;29.86;;;;;;;-1.76;100.00;94844.84;1017157;29;20024;-71
2021/11/26 00:14:19;;;;;;;95.88;30.76;;;;;;;-1.77;100.00;94843.28;1018216;29;20664;-72
2021/11/26 00:15:09;;;;;;;89.66;29.66;;;;;;;-1.80;100.00;94849.63;1027229;28;20022;-71
2021/11/26 00:15:41;;;;;;;98.30;31.88;;;;;;;-1.77;100.00;94849.22;1028362;28;20022;-71
2021/11/26 00:16:19;;;;;;;92.20;32.52;;;;;;;-1.78;100.00;94852.75;1026413;28;20678;-71
2021/11/26 00:16:54;;;;;;;100.94;31.54;;;;;;;-1.90;100.00;94828.72;1019876;29;20028;-71
2021/11/26 00:17:25;;;;;;;88.24;29.18;;;;;;;-1.79;100.00;94846.03;1022513;28;20480;-71
2021/11/26 00:18:03;;;;;;;106.45;32.72;;;;;;;-1.82;100.00;94851.59;1020054;29;20024;-71
2021/11/26 00:18:42;;;;;;;105.12;33.16;;;;;;;-1.80;100.00;94851.41;1023980;28;20031;-70
2021/11/26 00:19:12;;;;;;;110.07;33.10;;;;;;;-1.85;100.00;94849.44;1018465;29;20461;-70
2021/11/26 00:19:43;;;;;;;106.60;32.50;;;;;;;-1.84;100.00;94853.59;1019055;28;20134;-70
2021/11/26 00:20:13;;;;;;;108.75;33.20;;;;;;;-1.87;100.00;94856.59;1018682;29;20028;-71
2021/11/26 00:20:44;;;;;;;123.22;34.60;;;;;;;-1.89;100.00;94848.28;1015533;29;20043;-71
2021/11/26 00:21:15;;;;;;;117.45;34.58;;;;;;;-1.87;100.00;94854.00;1015603;29;20533;-70
2021/11/26 00:21:45;;;;;;;126.22;35.63;;;;;;;-1.85;100.00;94856.38;1011430;29;20545;-71
2021/11/26 00:22:16;;;;;;;121.63;37.70;;;;;;;-1.88;100.00;94851.63;1010615;29;20027;-71
2021/11/26 00:22:46;;;;;;;126.53;34.85;;;;;;;-1.86;100.00;94850.44;1013918;29;20667;-70
2021/11/26 00:23:17;;;;;;;128.63;36.95;;;;;;;-1.92;100.00;94838.41;1014433;29;20088;-70
2021/11/26 00:23:47;;;;;;;123.57;37.40;;;;;;;-1.87;100.00;94848.88;1013638;29;20051;-70
2021/11/26 00:24:18;;;;;;;124.72;36.28;;;;;;;-1.92;100.00;94843.53;1015581;29;20028;-70
2021/11/26 00:24:49;;;;;;;130.73;36.63;;;;;;;-1.95;100.00;94837.03;1018410;29;20123;-71
2021/11/26 00:25:19;;;;;;;136.88;36.44;;;;;;;-1.94;100.00;94838.63;1022413;29;20023;-71
2021/11/26 00:25:50;;;;;;;143.98;38.42;;;;;;;-1.91;100.00;94842.56;1026456;28;20468;-70
2021/11/26 00:26:20;;;;;;;129.88;36.95;;;;;;;-1.93;100.00;94836.84;1026481;28;20023;-71
2021/11/26 00:26:51;;;;;;;127.65;36.72;;;;;;;-1.92;100.00;94833.25;1018460;28;20020;-70
2021/11/26 00:27:21;;;;;;;120.18;36.17;;;;;;;-1.84;100.00;94847.69;1018226;29;20019;-70
2021/11/26 00:27:52;;;;;;;136.32;38.58;;;;;;;-1.87;100.00;94842.94;1026412;28;20041;-71
2021/11/26 00:28:22;;;;;;;127.28;35.90;;;;;;;-1.88;100.00;94846.50;1026599;28;20051;-71
2021/11/26 00:28:53;;;;;;;124.57;38.15;;;;;;;-1.89;100.00;94853.41;1026220;28;20093;-71
2021/11/26 00:29:23;;;;;;;115.85;35.95;;;;;;;-1.91;100.00;94845.16;1024517;28;20023;-71
2021/11/26 00:29:54;;;;;;;126.38;36.10;;;;;;;-1.90;100.00;94850.06;1017964;29;20055;-70
2021/11/26 00:30:24;;;;;;;138.27;39.28;;;;;;;-1.96;100.00;94844.97;1019305;29;20018;-71
2021/11/26 00:30:55;;;;;;;109.35;34.28;;;;;;;-1.91;100.00;94847.72;1021816;29;20039;-70
2021/11/26 00:31:25;;;;;;;115.05;35.83;;;;;;;-1.86;100.00;94847.88;1021043;28;20059;-71
2021/11/26 00:31:56;;;;;;;134.75;37.88;;;;;;;-1.88;100.00;94846.50;1031670;28;20041;-71
2021/11/26 00:32:26;;;;;;;130.45;36.78;;;;;;;-1.85;100.00;94846.88;1026670;28;20019;-71
2021/11/26 00:32:57;;;;;;;121.57;36.97;;;;;;;-1.89;100.00;94835.44;1022770;28;20026;-71
2021/11/26 00:33:27;;;;;;;125.38;38.30;;;;;;;-1.84;100.00;94843.31;1022661;28;20500;-71
2021/11/26 00:33:58;;;;;;;128.07;36.38;;;;;;;-1.83;100.00;94846.69;1022927;28;20015;-71
2021/11/26 00:34:29;;;;;;;126.30;36.42;;;;;;;-1.83;100.00;94844.88;1027059;28;20023;-71
2021/11/26 00:34:59;;;;;;;110.28;33.65;;;;;;;-1.84;100.00;94840.75;1022548;29;20022;-71
2021/11/26 00:35:30;;;;;;;120.00;36.35;;;;;;;-1.85;100.00;94830.66;1019213;29;20042;-71
2021/11/26 00:36:00;;;;;;;123.80;36.78;;;;;;;-1.78;100.00;94847.59;1014659;29;20143;-72
2021/11/26 00:36:31;;;;;;;128.63;35.42;;;;;;;-1.83;100.00;94842.31;1018839;29;20064;-71
2021/11/26 00:37:01;;;;;;;114.38;35.75;;;;;;;-1.82;100.00;94850.81;1022466;28;20030;-70
2021/11/26 00:37:32;;;;;;;112.80;36.33;;;;;;;-1.83;100.00;94847.47;1018517;29;20028;-70
2021/11/26 00:38:03;;;;;;;114.95;35.03;;;;;;;-1.86;100.00;94840.16;1020481;29;20028;-70
2021/11/26 00:38:34;;;;;;;124.08;36.90;;;;;;;-1.81;100.00;94844.66;1018898;29;20511;-70
2021/11/26 00:39:04;;;;;;;120.57;36.10;;;;;;;-1.85;100.00;94831.44;1019435;29;20034;-70
2021/11/26 00:39:35;;;;;;;115.70;36.70;;;;;;;-1.86;100.00;94829.09;1018572;29;20016;-70
2021/11/26 00:40:07;;;;;;;114.07;35.20;;;;;;;-1.79;100.00;94840.91;1021666;28;20031;-71
2021/11/26 00:40:38;;;;;;;112.94;34.20;;;;;;;-1.85;100.00;94820.38;1018680;29;20063;-71
2021/11/26 00:41:08;;;;;;;103.60;34.05;;;;;;;-1.78;100.00;94837.31;1014375;29;20031;-70
2021/11/26 00:41:38;;;;;;;118.50;35.30;;;;;;;-1.86;100.00;94824.72;1014322;29;20048;-71
2021/11/26 00:42:09;;;;;;;110.07;35.00;;;;;;;-1.80;100.00;94826.47;1018272;29;20462;-71
2021/11/26 00:42:41;;;;;;;107.40;33.75;;;;;;;-1.82;100.00;94832.81;1020811;29;20034;-70
2021/11/26 00:43:12;;;;;;;118.07;35.90;;;;;;;-1.85;100.00;94826.28;1010722;29;20040;-71
2021/11/26 00:43:44;;;;;;;110.30;34.53;;;;;;;-1.79;100.00;94825.47;1016770;29;20036;-72
2021/11/26 00:44:14;;;;;;;107.36;35.62;;;;;;;-1.81;100.00;94821.53;1022832;28;20445;-71
2021/11/26 00:44:45;;;;;;;99.30;33.10;;;;;;;-1.82;100.00;94825.09;1025432;28;20019;-70
2021/11/26 00:45:16;;;;;;;110.72;35.35;;;;;;;-1.77;100.00;94825.28;1026489;28;20085;-71
2021/11/26 00:45:46;;;;;;;110.56;35.48;;;;;;;-1.82;100.00;94825.09;1026121;28;20029;-71
2021/11/26 00:46:17;;;;;;;116.50;36.13;;;;;;;-1.77;100.00;94828.63;1026663;28;20026;-70
2021/11/26 00:46:47;;;;;;;109.07;33.30;;;;;;;-1.86;100.00;94814.44;1018765;29;20047;-71
2021/11/26 00:47:18;;;;;;;106.85;33.72;;;;;;;-1.75;100.00;94820.69;1010919;29;20041;-71
2021/11/26 00:47:48;;;;;;;111.07;34.47;;;;;;;-1.76;100.00;94814.78;1010472;29;20634;-70
2021/11/26 00:48:19;;;;;;;104.80;33.97;;;;;;;-1.72;100.00;94821.06;1017994;29;20095;-70
2021/11/26 00:48:49;;;;;;;101.93;33.03;;;;;;;-1.71;100.00;94817.53;1022972;29;20904;-71
2021/11/26 00:49:20;;;;;;;105.13;32.95;;;;;;;-1.70;100.00;94813.16;1018454;29;20023;-71
2021/11/26 00:49:50;;;;;;;99.57;32.72;;;;;;;-1.78;100.00;94806.47;1017450;29;20052;-70
2021/11/26 00:50:59;;;;;;;100.02;32.72;;;;;;;-1.75;100.00;94806.06;1025473;28;20042;-65
2021/11/26 00:51:30;;;;;;;111.15;35.40;;;;;;;-1.75;100.00;94800.91;1027221;28;20093;-66
2021/11/26 00:52:01;;;;;;;103.98;35.28;;;;;;;-1.74;100.00;94809.44;1031268;28;20117;-66
2021/11/26 00:52:31;;;;;;;109.93;34.58;;;;;;;-1.75;100.00;94805.28;1034353;28;20022;-66
2021/11/26 00:53:03;;;;;;;107.00;35.63;;;;;;;-1.78;100.00;94801.31;1034795;28;20018;-66
2021/11/26 00:53:33;;;;;;;90.20;30.76;;;;;;;-1.79;100.00;94794.63;1038007;28;20051;-66
2021/11/26 00:54:04;;;;;;;99.10;32.53;;;;;;;-1.83;100.00;94783.19;1030075;28;20117;-67
2021/11/26 00:54:34;;;;;;;105.82;35.50;;;;;;;-1.77;100.00;94797.78;1030037;28;20500;-67
2021/11/26 00:55:06;;;;;;;99.53;31.90;;;;;;;-1.75;100.00;94798.34;1029266;28;20023;-66
2021/11/26 00:55:36;;;;;;;103.52;32.54;;;;;;;-1.74;100.00;94796.59;1028804;28;20398;-66
2021/11/26 00:56:06;;;;;;;95.47;32.55;;;;;;;-1.81;100.00;94785.53;1034168;28;20483;-63
2021/11/26 00:56:37;;;;;;;90.78;32.08;;;;;;;-1.77;100.00;94797.78;1027164;28;20007;-66
2021/11/26 00:57:08;;;;;;;102.65;34.80;;;;;;;-1.81;100.00;94788.91;1026383;28;20114;-66
2021/11/26 00:57:39;;;;;;;105.72;33.38;;;;;;;-1.80;100.00;94802.56;1026019;28;20035;-66
2021/11/26 00:58:10;;;;;;;104.18;32.94;;;;;;;-1.81;100.00;94786.34;1030148;28;22140;-66
2021/11/26 00:58:40;;;;;;;102.15;32.80;;;;;;;-1.81;100.00;94791.50;1034147;28;20105;-66
2021/11/26 00:59:11;;;;;;;100.82;32.90;;;;;;;-1.84;100.00;94791.91;1026207;28;20019;-67
2021/11/26 00:59:41;;;;;;;98.47;32.13;;;;;;;-1.82;100.00;94789.09;1025816;28;20030;-66
2021/11/26 01:00:13;;;;;;;104.22;33.42;;;;;;;-1.81;100.00;94786.34;1021866;28;20031;-65
2021/11/26 01:00:44;;;;;;;104.22;32.66;;;;;;;-1.82;100.00;94784.75;1020130;28;20086;-66
2021/11/26 01:01:14;;;;;;;108.25;34.38;;;;;;;-1.92;100.00;94774.94;1029896;28;20018;-67
2021/11/26 01:01:45;;;;;;;109.15;34.92;;;;;;;-1.90;100.00;94778.09;1029578;28;20010;-65
2021/11/26 01:02:15;;;;;;;110.85;33.65;;;;;;;-1.85;100.00;94780.03;1030518;28;20026;-65
2021/11/26 01:02:46;;;;;;;92.43;31.20;;;;;;;-1.80;100.00;94792.28;1026250;28;20117;-66
2021/11/26 01:03:16;;;;;;;97.87;32.27;;;;;;;-1.81;100.00;94780.38;1022613;28;20026;-67
2021/11/26 01:03:47;;;;;;;99.32;33.42;;;;;;;-1.80;100.00;94785.34;1026294;28;20101;-65
2021/11/26 01:04:17;;;;;;;92.55;32.17;;;;;;;-1.78;100.00;94780.75;1026032;28;20015;-65
2021/11/26 01:04:48;;;;;;;98.28;31.17;;;;;;;-1.83;100.00;94772.13;1029937;28;20023;-65
2021/11/26 01:05:18;;;;;;;95.20;30.83;;;;;;;-1.80;100.00;94787.91;1030251;28;20491;-67
2021/11/26 01:05:49;;;;;;;96.15;31.40;;;;;;;-1.80;100.00;94775.06;1026295;28;20019;-66
2021/11/26 01:06:20;;;;;;;96.06;32.52;;;;;;;-1.81;100.00;94765.78;1022471;29;20022;-66
2021/11/26 01:06:50;;;;;;;98.50;32.50;;;;;;;-1.70;100.00;94783.09;1020761;28;20563;-67
2021/11/26 01:07:21;;;;;;;90.70;31.92;;;;;;;-1.71;100.00;94781.53;1026503;28;20439;-66
2021/11/26 01:07:51;;;;;;;94.30;29.92;;;;;;;-1.76;100.00;94770.28;1026361;28;20139;-66
2021/11/26 01:08:22;;;;;;;101.60;31.75;;;;;;;-1.82;100.00;94764.19;1029811;28;20074;-66
2021/11/26 01:08:52;;;;;;;99.60;33.22;;;;;;;-1.74;100.00;94771.66;1022617;28;20047;-67
2021/11/26 01:09:23;;;;;;;104.68;32.80;;;;;;;-1.75;100.00;94769.28;1026316;28;20026;-66
2021/11/26 01:09:53;;;;;;;96.88;31.15;;;;;;;-1.81;100.00;94780.38;1025662;28;20105;-66
2021/11/26 01:10:24;;;;;;;98.35;32.03;;;;;;;-1.79;100.00;94768.91;1022473;28;20106;-67
2021/11/26 01:10:55;;;;;;;91.92;30.16;;;;;;;-1.81;100.00;94764.97;1026259;28;20070;-66
2021/11/26 01:11:25;;;;;;;99.18;31.60;;;;;;;-1.82;100.00;94778.81;1026233;28;20481;-63
2021/11/26 01:11:56;;;;;;;98.97;32.45;;;;;;;-1.85;100.00;94761.25;1030582;28;20057;-63
2021/11/26 01:12:26;;;;;;;97.15;33.33;;;;;;;-1.79;100.00;94776.63;1033797;28;20026;-68
2021/11/26 01:12:57;;;;;;;102.82;32.13;;;;;;;-1.79;100.00;94770.69;1030392;28;20033;-66
2021/11/26 01:13:28;;;;;;;108.10;32.97;;;;;;;-1.79;100.00;94771.47;1026475;28;20038;-65
2021/11/26 01:13:58;;;;;;;97.68;31.05;;;;;;;-1.86;100.00;94763.03;1030354;28;20475;-66
2021/11/26 01:14:29;;;;;;;107.15;34.53;;;;;;;-1.81;100.00;94778.63;1026435;28;20027;-67
2021/11/26 01:14:59;;;;;;;98.93;33.15;;;;;;;-1.79;100.00;94774.06;1026328;28;20117;-66
2021/11/26 01:15:30;;;;;;;91.30;32.83;;;;;;;-1.82;100.00;94779.59;1029618;28;20018;-66
2021/11/26 01:16:01;;;;;;;91.32;33.42;;;;;;;-1.80;100.00;94771.69;1026679;28;20019;-67
2021/11/26 01:16:31;;;;;;;96.90;32.17;;;;;;;-1.80;100.00;94776.84;1033998;28;20018;-69
2021/11/26 01:17:02;;;;;;;104.63;33.22;;;;;;;-1.81;100.00;94773.50;1030306;28;20042;-67
2021/11/26 01:17:32;;;;;;;104.88;33.05;;;;;;;-1.97;100.00;94746.50;1025009;28;20053;-66
2021/11/26 01:18:03;;;;;;;109.30;34.17;;;;;;;-1.79;100.00;94775.84;1022409;28;20106;-66
2021/11/26 01:18:34;;;;;;;102.15;32.60;;;;;;;-1.79;100.00;94775.84;1022706;28;20023;-66
2021/11/26 01:19:04;;;;;;;101.13;33.40;;;;;;;-1.77;100.00;94768.72;1026306;28;20014;-66
2021/11/26 01:19:35;;;;;;;106.90;33.40;;;;;;;-1.74;100.00;94770.88;1030303;28;20019;-67
2021/11/26 01:20:06;;;;;;;103.25;32.63;;;;;;;-1.75;100.00;94779.56;1029630;28;20022;-66
2021/11/26 01:20:36;;;;;;;94.20;32.68;;;;;;;-1.74;100.00;94771.66;1028973;28;20109;-66
2021/11/26 01:21:07;;;;;;;99.13;31.70;;;;;;;-1.71;100.00;94773.81;1027315;28;20051;-66
2021/11/26 01:21:38;;;;;;;98.35;32.47;;;;;;;-1.76;100.00;94765.13;1029994;28;20022;-66
2021/11/26 01:22:08;;;;;;;94.88;31.23;;;;;;;-1.71;100.00;94765.28;1022929;28;20106;-67
2021/11/26 01:22:39;;;;;;;101.38;33.83;;;;;;;-1.72;100.00;94767.06;1023288;29;20038;-66
2021/11/26 01:23:09;;;;;;;94.43;31.00;;;;;;;-1.82;100.00;94756.47;1024784;28;20024;-66
2021/11/26 01:23:40;;;;;;;102.78;33.03;;;;;;;-1.68;100.00;94768.25;1031184;28;20041;-66
2021/11/26 01:24:10;;;;;;;89.32;31.45;;;;;;;-1.70;100.00;94766.88;1027908;28;20530;-66
2021/11/26 01:24:41;;;;;;;94.88;31.38;;;;;;;-1.68;100.00;94764.88;1026945;28;20077;-67
2021/11/26 01:25:12;;;;;;;83.18;29.83;;;;;;;-1.73;100.00;94760.38;1023015;28;20476;-65
2021/11/26 01:25:43;;;;;;;86.20;29.16;;;;;;;-1.79;100.00;94753.47;1022850;28;20027;-67
2021/11/26 01:26:13;;;;;;;97.68;29.90;;;;;;;-1.73;100.00;94762.16;1031072;28;20014;-65
2021/11/26 01:26:44;;;;;;;98.43;31.25;;;;;;;-1.69;100.00;94765.88;1020799;28;20041;-66
2021/11/26 01:27:14;;;;;;;84.45;29.65;;;;;;;-1.67;100.00;94769.81;1019478;28;20020;-66
2021/11/26 01:27:45;;;;;;;84.50;29.80;;;;;;;-1.77;100.00;94764.34;1031232;28;20026;-66
2021/11/26 01:28:15;;;;;;;100.88;31.35;;;;;;;-1.77;100.00;94761.00;1030292;28;20539;-66
2021/11/26 01:28:47;;;;;;;94.43;29.15;;;;;;;-1.79;100.00;94750.91;1031116;28;20023;-66
2021/11/26 01:29:17;;;;;;;85.72;28.78;;;;;;;-1.96;100.00;94735.22;1023036;29;20108;-66
2021/11/26 01:29:48;;;;;;;85.10;28.60;;;;;;;-1.94;100.00;94738.38;1022499;28;20077;-66
2021/11/26 01:30:26;;;;;;;88.90;30.88;;;;;;;-1.75;100.00;94759.78;1027133;28;20484;-67
2021/11/26 01:30:57;;;;;;;97.92;30.56;;;;;;;-1.70;100.00;94762.50;1025530;28;20031;-66
2021/11/26 01:31:28;;;;;;;93.03;29.98;;;;;;;-1.71;100.00;94763.53;1024750;28;20106;-65
2021/11/26 01:31:58;;;;;;;78.47;28.10;;;;;;;-1.71;100.00;94760.94;1022471;28;20186;-67
2021/11/26 01:32:28;;;;;;;90.07;29.83;;;;;;;-1.73;100.00;94757.78;1021107;28;20121;-66
2021/11/26 01:33:00;;;;;;;81.57;29.75;;;;;;;-1.76;100.00;94752.28;1026975;28;20023;-66
2021/11/26 01:33:31;;;;;;;98.46;32.16;;;;;;;-1.74;100.00;94760.59;1024310;28;20062;-66
2021/11/26 01:34:03;;;;;;;90.28;30.92;;;;;;;-1.78;100.00;94760.19;1022986;28;20039;-67
2021/11/26 01:34:34;;;;;;;94.38;31.28;;;;;;;-1.77;100.00;94759.22;1023109;28;20032;-67
2021/11/26 01:35:05;;;;;;;89.44;29.58;;;;;;;-1.77;100.00;94756.63;1028382;28;20035;-66
2021/11/26 01:35:36;;;;;;;84.38;29.73;;;;;;;-1.73;100.00;94762.16;1035181;28;20069;-66
2021/11/26 01:36:07;;;;;;;103.46;32.88;;;;;;;-1.73;100.00;94759.56;1035627;28;20021;-67
2021/11/26 01:36:39;;;;;;;100.10;33.00;;;;;;;-1.75;100.00;94759.78;1031276;28;20018;-67
2021/11/26 01:37:10;;;;;;;96.06;30.92;;;;;;;-1.76;100.00;94753.06;1031054;28;20023;-68
2021/11/26 01:37:40;;;;;;;107.03;31.85;;;;;;;-1.74;100.00;94760.59;1022740;28;20055;-66
2021/11/26 01:38:11;;;;;;;103.70;32.70;;;;;;;-1.77;100.00;94758.44;1025801;28;20095;-66
2021/11/26 01:38:41;;;;;;;101.03;32.08;;;;;;;-1.79;100.00;94755.28;1031142;28;20733;-68
2021/11/26 01:39:12;;;;;;;110.22;32.53;;;;;;;-1.80;100.00;94762.19;1031399;28;20019;-65
2021/11/26 01:39:42;;;;;;;107.68;33.00;;;;;;;-1.78;100.00;94747.34;1034167;28;20048;-66
2021/11/26 01:40:13;;;;;;;98.25;31.33;;;;;;;-1.81;100.00;94750.34;1030718;28;20030;-65
2021/11/26 01:40:43;;;;;;;113.53;31.75;;;;;;;-1.90;100.00;94741.31;1014426;29;20028;-67
2021/11/26 01:41:15;;;;;;;101.43;31.95;;;;;;;-1.84;100.00;94755.91;1015133;29;20111;-64
2021/11/26 01:41:45;;;;;;;102.68;32.48;;;;;;;-1.89;100.00;94750.59;1017475;29;20027;-65
2021/11/26 01:42:16;;;;;;;94.88;31.13;;;;;;;-1.87;100.00;94751.19;1022953;29;20023;-66
2021/11/26 01:42:47;;;;;;;114.85;34.03;;;;;;;-1.88;100.00;94748.81;1026275;28;20701;-67
2021/11/26 01:43:20;;;;;;;95.64;32.34;;;;;;;-1.86;100.00;94745.03;1023191;29;20122;-66
2021/11/26 01:43:50;;;;;;;100.14;31.84;;;;;;;-1.86;100.00;94741.69;1023106;28;20038;-67
2021/11/26 01:44:21;;;;;;;101.90;32.08;;;;;;;-1.87;100.00;94751.19;1025445;28;20551;-66
2021/11/26 01:44:51;;;;;;;119.43;34.47;;;;;;;-1.86;100.00;94742.47;1031007;28;20019;-66
2021/11/26 01:45:22;;;;;;;112.82;34.53;;;;;;;-1.83;100.00;94748.97;1022942;28;20023;-67
2021/11/26 01:45:55;;;;;;;114.32;35.17;;;;;;;-1.88;100.00;94741.88;1023522;28;20598;-66
2021/11/26 01:46:26;;;;;;;113.26;33.88;;;;;;;-1.85;100.00;94749.16;1027058;28;20570;-65
2021/11/26 01:46:56;;;;;;;117.13;34.28;;;;;;;-1.89;100.00;94742.88;1023516;28;20034;-67
2021/11/26 01:47:27;;;;;;;120.10;35.85;;;;;;;-1.82;100.00;94748.75;1024594;28;20106;-66
2021/11/26 01:47:57;;;;;;;124.72;35.35;;;;;;;-1.90;100.00;94743.88;1026509;28;20033;-66
2021/11/26 01:48:28;;;;;;;131.68;37.15;;;;;;;-1.82;100.00;94748.75;1022778;28;20490;-67
2021/11/26 01:48:58;;;;;;;131.23;34.28;;;;;;;-1.84;100.00;94745.63;1026726;28;20026;-66
2021/11/26 01:49:29;;;;;;;119.63;34.95;;;;;;;-1.88;100.00;94741.88;1024701;28;20030;-64
2021/11/26 01:50:00;;;;;;;118.57;35.78;;;;;;;-1.83;100.00;94747.19;1018337;29;20036;-67
2021/11/26 01:50:30;;;;;;;126.68;35.12;;;;;;;-1.87;100.00;94751.19;1022792;28;20011;-66
2021/11/26 01:51:01;;;;;;;131.20;36.53;;;;;;;-1.83;100.00;94748.97;1029866;28;20034;-65
2021/11/26 01:51:31;;;;;;;119.53;34.47;;;;;;;-1.91;100.00;94740.53;1027035;28;20663;-63
2021/11/26 01:52:02;;;;;;;121.82;35.78;;;;;;;-1.80;100.00;94757.06;1021460;29;20037;-66
2021/11/26 01:52:35;;;;;;;121.55;35.20;;;;;;;-1.84;100.00;94745.63;1022674;28;20041;-64
2021/11/26 01:53:06;;;;;;;141.38;35.48;;;;;;;-1.87;100.00;94743.47;1022760;29;20050;-65
2021/11/26 01:53:36;;;;;;;131.88;37.70;;;;;;;-1.78;100.00;94759.41;1026636;28;20111;-66
2021/11/26 01:54:07;;;;;;;136.73;36.50;;;;;;;-1.80;100.00;94751.91;1025878;28;20042;-66
2021/11/26 01:54:38;;;;;;;154.38;36.66;;;;;;;-1.80;100.00;94751.91;1022030;29;20032;-67
2021/11/26 01:55:09;;;;;;;135.20;36.80;;;;;;;-1.88;100.00;94744.44;1015018;29;20039;-66
2021/11/26 01:55:39;;;;;;;136.82;38.63;;;;;;;-1.80;100.00;94751.91;1018245;29;20019;-66
2021/11/26 01:56:10;;;;;;;135.32;35.97;;;;;;;-1.87;100.00;94746.03;1021338;28;20381;-66
2021/11/26 01:56:40;;;;;;;135.90;37.90;;;;;;;-1.78;100.00;94749.91;1025449;28;20054;-66
2021/11/26 01:57:11;;;;;;;135.75;36.15;;;;;;;-1.87;100.00;94740.91;1029308;28;20018;-65
2021/11/26 01:57:43;;;;;;;117.80;34.30;;;;;;;-1.79;100.00;94747.56;1022873;29;20583;-66
2021/11/26 01:58:14;;;;;;;138.80;38.04;;;;;;;-1.78;100.00;94744.75;1023180;28;20110;-66
2021/11/26 01:58:44;;;;;;;133.15;38.35;;;;;;;-1.88;100.00;94739.31;1026842;28;20130;-65
2021/11/26 01:59:15;;;;;;;145.73;36.83;;;;;;;-1.84;100.00;94748.19;1019336;29;20687;-67
2021/11/26 01:59:49;;;;;;;143.90;36.70;;;;;;;-1.83;100.00;94742.03;1021844;29;20023;-66
2021/11/26 02:00:23;;;;;;;131.74;37.22;;;;;;;-1.80;100.00;94746.78;1026746;28;20087;-62
2021/11/26 02:00:54;;;;;;;140.32;35.96;;;;;;;-1.82;100.00;94743.63;1028660;28;20114;-66
2021/11/26 02:01:25;;;;;;;138.77;36.53;;;;;;;-1.77;100.00;94745.56;1026991;28;20423;-66
2021/11/26 02:01:56;;;;;;;120.20;37.74;;;;;;;-1.72;100.00;94743.16;1023516;28;20511;-64
2021/11/26 02:02:26;;;;;;;145.63;37.60;;;;;;;-1.74;100.00;94743.38;1027376;28;20023;-67
2021/11/26 02:02:57;;;;;;;149.85;39.55;;;;;;;-1.75;100.00;94744.34;1027094;28;20033;-67
2021/11/26 02:03:30;;;;;;;139.23;37.33;;;;;;;-1.73;100.00;94749.28;1023531;29;20046;-65
2021/11/26 02:04:01;;;;;;;160.50;39.16;;;;;;;-1.71;100.00;94745.53;1023707;28;20035;-66
2021/11/26 02:04:31;;;;;;;158.77;39.90;;;;;;;-1.72;100.00;94745.72;1026335;28;20027;-66
2021/11/26 02:05:03;;;;;;;190.43;39.15;;;;;;;-1.72;100.00;94740.56;1031836;28;20023;-67
2021/11/26 02:05:33;;;;;;;180.12;39.14;;;;;;;-1.76;100.00;94739.44;1034746;28;20076;-65
2021/11/26 02:06:03;;;;;;;185.90;40.67;;;;;;;-1.83;100.00;94726.63;1035247;28;20084;-65
2021/11/26 02:06:34;;;;;;;180.35;41.05;;;;;;;-1.73;100.00;94737.22;1027328;28;20472;-62
2021/11/26 02:07:05;;;;;;;164.48;38.80;;;;;;;-1.72;100.00;94738.78;1025583;28;20055;-66
2021/11/26 02:07:35;;;;;;;175.52;39.67;;;;;;;-1.73;100.00;94728.72;1031501;28;20046;-66
2021/11/26 02:08:07;;;;;;;152.82;37.35;;;;;;;-1.77;100.00;94728.34;1023230;28;20520;-66
2021/11/26 02:08:37;;;;;;;159.92;39.40;;;;;;;-1.78;100.00;94724.19;1031081;28;20050;-63
2021/11/26 02:09:08;;;;;;;165.05;41.35;;;;;;;-1.82;100.00;94712.75;1023468;29;20787;-66
2021/11/26 02:09:38;;;;;;;176.13;40.50;;;;;;;-1.74;100.00;94720.22;1024584;28;20049;-62
2021/11/26 02:10:09;;;;;;;158.50;38.13;;;;;;;-1.72;100.00;94723.34;1019422;29;20401;-66
2021/11/26 02:10:39;;;;;;;160.27;39.30;;;;;;;-1.68;100.00;94723.72;1023627;28;20405;-66
2021/11/26 02:11:10;;;;;;;164.23;39.65;;;;;;;-1.67;100.00;94715.81;1028014;28;20097;-66
2021/11/26 02:11:41;;;;;;;214.43;41.05;;;;;;;-1.66;100.00;94722.53;1026448;28;20489;-66
2021/11/26 02:12:11;;;;;;;163.20;39.08;;;;;;;-1.67;100.00;94720.16;1019540;29;20059;-66
2021/11/26 02:12:42;;;;;;;166.27;39.65;;;;;;;-1.65;100.00;94720.72;1019455;29;20071;-64
2021/11/26 02:13:12;;;;;;;183.98;40.22;;;;;;;-1.67;100.00;94718.38;1018989;29;20031;-66
2021/11/26 02:13:42;;;;;;;179.38;41.00;;;;;;;-1.74;100.00;94715.09;1019380;28;20027;-66
2021/11/26 02:14:15;;;;;;;152.98;39.33;;;;;;;-1.72;100.00;94718.22;1027532;28;20019;-66
2021/11/26 02:14:45;;;;;;;167.06;39.88;;;;;;;-1.66;100.00;94717.38;1034799;28;20026;-66
2021/11/26 02:15:21;;;;;;;159.30;40.17;;;;;;;-1.77;100.00;94723.22;1031538;28;20045;-65
2021/11/26 02:15:53;;;;;;;164.02;41.68;;;;;;;-1.86;100.00;94721.91;1035643;28;20030;-67
2021/11/26 02:16:23;;;;;;;179.48;40.14;;;;;;;-2.01;100.00;94706.81;1035240;28;20029;-63
2021/11/26 02:16:54;;;;;;;202.77;41.55;;;;;;;-1.86;100.00;94721.13;1035822;28;20022;-66
2021/11/26 02:17:25;;;;;;;135.57;35.70;;;;;;;-1.84;100.00;94725.06;1031817;28;20022;-67
2021/11/26 02:17:57;;;;;;;214.92;44.36;;;;;;;-1.91;100.00;94719.97;1027219;28;20022;-65
2021/11/26 02:18:28;;;;;;;220.20;44.46;;;;;;;-1.83;100.00;94721.47;1023736;29;20054;-66
2021/11/26 02:18:58;;;;;;;166.15;39.00;;;;;;;-1.82;100.00;94717.91;1024188;28;20480;-66
2021/11/26 02:19:28;;;;;;;216.25;45.15;;;;;;;-1.83;100.00;94718.13;1030103;28;20097;-63
2021/11/26 02:19:59;;;;;;;200.38;42.63;;;;;;;-1.87;100.00;94715.19;1030155;28;20026;-65
2021/11/26 02:20:29;;;;;;;207.40;42.55;;;;;;;-1.95;100.00;94705.16;1031424;28;20042;-63
2021/11/26 02:21:00;;;;;;;188.32;41.47;;;;;;;-1.88;100.00;94707.69;1018832;29;20035;-66